Time;durP1;ratioP1;P1;durP2;ratioP2;P2;SDS_P1;SDS_P2;PMS_P1;PMS_P2;Temp;Humidity;BMP_temperature;BMP_pressure;BME280_temperature;BME280_humidity;BME280_pressure;Samples;Min_cycle;Max_cycle;Signal;HPM_P1;HPM_P2
2023/07/26 00:00:55;;;;;;;;;;;13.10;67.20;;;;;;4143539;28;19918;-84
2023/07/26 00:03:16;;;;;;;;;;;13.10;67.10;;;;;;4141931;28;20052;-83
2023/07/26 00:05:36;;;;;;;;;;;13.10;67.40;;;;;;4145626;28;19921;-84
2023/07/26 00:07:57;;;;;;;;;;;13.00;67.50;;;;;;4137580;28;19917;-83
2023/07/26 00:10:17;;;;;;;;;;;13.00;67.00;;;;;;4143649;28;19964;-83
2023/07/26 00:12:38;;;;;;;;;;;13.00;67.00;;;;;;4141211;28;19929;-84
2023/07/26 00:14:49;;;;;;;;;;;13.00;66.80;;;;;;4143387;28;19988;-83
2023/07/26 00:16:50;;;;;;;;;;;13.00;67.30;;;;;;4142175;28;19913;-83
2023/07/26 00:18:50;;;;;;;;;;;13.10;67.50;;;;;;4139522;28;19928;-83
2023/07/26 00:20:51;;;;;;;;;;;13.00;67.20;;;;;;4140973;28;19913;-83
2023/07/26 00:22:51;;;;;;;;;;;13.00;67.40;;;;;;4143376;28;19943;-83
2023/07/26 00:24:53;;;;;;;;;;;13.00;67.20;;;;;;4143955;28;19960;-83
2023/07/26 00:26:53;;;;;;;;;;;13.00;67.40;;;;;;4136543;28;19914;-83
2023/07/26 00:28:54;;;;;;;;;;;12.90;67.40;;;;;;4141646;28;19980;-83
2023/07/26 00:30:55;;;;;;;;;;;13.00;67.20;;;;;;4140663;28;19925;-83
2023/07/26 00:32:55;;;;;;;;;;;13.00;67.40;;;;;;4143169;28;19921;-83
2023/07/26 00:34:56;;;;;;;;;;;12.90;67.10;;;;;;4143846;28;19964;-84
2023/07/26 00:37:00;;;;;;;;;;;12.90;67.20;;;;;;4137114;28;19920;-83
2023/07/26 00:39:00;;;;;;;;;;;12.90;67.00;;;;;;4139822;28;19959;-83
2023/07/26 00:41:03;;;;;;;;;;;12.80;67.30;;;;;;4140987;28;20430;-83
2023/07/26 00:43:23;;;;;;;;;;;12.90;67.50;;;;;;4140796;28;19913;-84
2023/07/26 00:45:44;;;;;;;;;;;12.80;68.00;;;;;;4140106;28;19917;-84
2023/07/26 00:48:05;;;;;;;;;;;12.80;68.00;;;;;;4141490;28;19960;-83
2023/07/26 00:50:25;;;;;;;;;;;12.80;67.90;;;;;;4143965;28;19914;-83
2023/07/26 00:52:46;;;;;;;;;;;12.70;67.50;;;;;;4142488;28;19917;-84
2023/07/26 00:54:47;;;;;;;;;;;12.70;67.70;;;;;;4141881;28;19925;-84
2023/07/26 00:56:47;;;;;;;;;;;12.70;67.60;;;;;;4142233;28;19918;-84
2023/07/26 00:58:48;;;;;;;;;;;12.90;68.80;;;;;;4142395;28;19926;-84
2023/07/26 01:00:50;;;;;;;;;;;12.70;68.30;;;;;;4141812;28;19918;-83
2023/07/26 01:03:10;;;;;;;;;;;12.70;68.10;;;;;;4142243;28;20441;-83
2023/07/26 01:05:34;;;;;;;;;;;12.80;68.00;;;;;;4140110;28;19917;-85
2023/07/26 01:07:57;;;;;;;;;;;12.70;68.10;;;;;;4140706;28;20420;-83
2023/07/26 01:10:29;;;;;;;;;;;12.80;68.50;;;;;;4142792;28;19918;-84
2023/07/26 01:12:54;;;;;;;;;;;12.80;69.50;;;;;;4142614;28;19920;-83
2023/07/26 01:15:15;;;;;;;;;;;12.80;69.60;;;;;;4141720;28;19921;-84
2023/07/26 01:17:35;;;;;;;;;;;12.80;70.10;;;;;;4141879;28;20642;-84
2023/07/26 01:19:56;;;;;;;;;;;12.80;69.70;;;;;;4142621;28;20000;-84
2023/07/26 01:22:16;;;;;;;;;;;12.80;69.30;;;;;;4144168;28;20375;-83
2023/07/26 01:24:37;;;;;;;;;;;12.80;69.70;;;;;;4156427;28;19921;-83
2023/07/26 01:26:38;;;;;;;;;;;12.80;69.80;;;;;;4144931;28;19917;-84
2023/07/26 01:28:38;;;;;;;;;;;12.80;69.50;;;;;;4139577;28;19917;-83
2023/07/26 01:30:39;;;;;;;;;;;12.80;69.20;;;;;;4143523;28;19913;-84
2023/07/26 01:32:41;;;;;;;;;;;12.80;69.30;;;;;;4141021;28;20016;-84
2023/07/26 01:34:42;;;;;;;;;;;12.70;69.50;;;;;;4141136;28;20015;-84
2023/07/26 01:36:43;;;;;;;;;;;12.70;69.50;;;;;;4141787;28;19921;-84
2023/07/26 01:38:45;;;;;;;;;;;12.80;69.40;;;;;;4142403;28;19921;-83
2023/07/26 01:40:46;;;;;;;;;;;12.70;69.30;;;;;;4143661;28;19924;-84
2023/07/26 01:42:47;;;;;;;;;;;12.70;69.20;;;;;;4141446;28;19917;-84
2023/07/26 01:44:48;;;;;;;;;;;12.70;69.30;;;;;;4139331;28;19999;-84
2023/07/26 01:46:52;;;;;;;;;;;12.70;70.00;;;;;;4142197;28;20381;-84
2023/07/26 01:48:53;;;;;;;;;;;12.70;69.80;;;;;;4138387;28;19932;-84
2023/07/26 01:50:59;;;;;;;;;;;12.70;69.80;;;;;;4140005;28;19965;-83
2023/07/26 01:52:59;;;;;;;;;;;12.70;70.00;;;;;;4141442;28;20283;-84
2023/07/26 01:55:00;;;;;;;;;;;12.70;69.80;;;;;;4140964;28;20012;-84
2023/07/26 01:57:00;;;;;;;;;;;12.70;70.50;;;;;;4142146;28;19941;-84
2023/07/26 01:59:01;;;;;;;;;;;12.70;71.00;;;;;;4140021;28;20490;-84
2023/07/26 02:01:02;;;;;;;;;;;12.80;70.50;;;;;;4141862;28;19917;-83
2023/07/26 02:03:03;;;;;;;;;;;12.70;70.20;;;;;;4141073;28;19920;-83
2023/07/26 02:05:04;;;;;;;;;;;12.70;70.00;;;;;;4157280;28;19952;-84
2023/07/26 02:07:05;;;;;;;;;;;12.70;70.20;;;;;;4157871;28;19969;-83
2023/07/26 02:09:05;;;;;;;;;;;12.70;70.40;;;;;;4144125;28;19913;-84
2023/07/26 02:11:08;;;;;;;;;;;12.70;70.20;;;;;;4125379;28;20462;-84
2023/07/26 02:13:28;;;;;;;;;;;12.70;70.00;;;;;;4140939;28;20554;-83
2023/07/26 02:15:49;;;;;;;;;;;12.70;70.10;;;;;;4141824;28;20412;-83
2023/07/26 02:18:09;;;;;;;;;;;12.70;70.00;;;;;;4142305;28;20391;-84
2023/07/26 02:20:30;;;;;;;;;;;12.70;70.00;;;;;;4139601;28;20696;-83
2023/07/26 02:22:31;;;;;;;;;;;12.70;69.80;;;;;;4141047;28;19924;-84
2023/07/26 02:24:34;;;;;;;;;;;12.70;69.70;;;;;;4158735;28;19969;-84
2023/07/26 02:26:34;;;;;;;;;;;12.70;69.50;;;;;;4147368;28;19914;-84
2023/07/26 02:28:35;;;;;;;;;;;12.70;68.70;;;;;;4139267;28;19929;-84
2023/07/26 02:30:35;;;;;;;;;;;12.70;69.10;;;;;;4147138;28;19996;-83
2023/07/26 02:32:36;;;;;;;;;;;12.70;68.80;;;;;;4144679;28;19932;-83
2023/07/26 02:34:37;;;;;;;;;;;12.70;68.60;;;;;;4143592;28;19945;-83
2023/07/26 02:36:38;;;;;;;;;;;12.80;68.80;;;;;;4138703;28;20507;-83
2023/07/26 02:38:38;;;;;;;;;;;12.80;68.90;;;;;;4141496;28;19924;-83
2023/07/26 02:40:39;;;;;;;;;;;12.70;68.60;;;;;;4140694;28;19979;-84
2023/07/26 02:42:41;;;;;;;;;;;12.80;68.40;;;;;;4139780;28;19914;-83
2023/07/26 02:44:48;;;;;;;;;;;12.80;68.30;;;;;;4142251;28;20407;-83
2023/07/26 02:47:08;;;;;;;;;;;12.80;68.50;;;;;;4139973;28;20462;-84
2023/07/26 02:49:09;;;;;;;;;;;12.80;68.70;;;;;;4137668;28;19917;-83
2023/07/26 02:51:30;;;;;;;;;;;12.90;68.90;;;;;;4141918;28;19968;-83
2023/07/26 02:53:51;;;;;;;;;;;12.80;69.20;;;;;;4137171;28;20291;-83
2023/07/26 02:55:52;;;;;;;;;;;12.80;69.70;;;;;;4140174;28;19920;-83
2023/07/26 02:58:12;;;;;;;;;;;12.80;69.80;;;;;;4140132;28;20343;-83
2023/07/26 03:00:33;;;;;;;;;;;12.80;69.80;;;;;;4140314;28;20494;-84
2023/07/26 03:02:53;;;;;;;;;;;12.70;69.60;;;;;;4139827;28;20450;-83
2023/07/26 03:05:14;;;;;;;;;;;12.80;69.60;;;;;;4143124;28;20276;-83
2023/07/26 03:07:22;;;;;;;;;;;12.70;69.60;;;;;;4142443;28;19913;-83
2023/07/26 03:09:42;;;;;;;;;;;12.70;69.80;;;;;;4145592;28;20291;-83
2023/07/26 03:12:03;;;;;;;;;;;12.70;69.80;;;;;;4145094;28;19921;-82
2023/07/26 03:14:24;;;;;;;;;;;12.70;69.80;;;;;;4145372;28;20772;-83
2023/07/26 03:16:44;;;;;;;;;;;12.70;69.60;;;;;;4140189;28;20341;-83
2023/07/26 03:18:48;;;;;;;;;;;12.70;69.60;;;;;;4143001;28;19932;-82
2023/07/26 03:20:49;;;;;;;;;;;12.70;69.70;;;;;;4140708;28;20608;-83
2023/07/26 03:22:51;;;;;;;;;;;12.60;69.50;;;;;;4123625;28;19914;-83
2023/07/26 03:24:53;;;;;;;;;;;12.60;69.40;;;;;;4141430;28;19925;-83
2023/07/26 03:27:14;;;;;;;;;;;12.60;69.30;;;;;;4141968;28;20276;-83
2023/07/26 03:29:34;;;;;;;;;;;12.60;69.40;;;;;;4144036;28;20345;-83
2023/07/26 03:31:35;;;;;;;;;;;12.50;69.20;;;;;;4142595;28;20264;-83
2023/07/26 03:33:55;;;;;;;;;;;12.50;69.40;;;;;;4145431;28;20353;-83
2023/07/26 03:36:16;;;;;;;;;;;12.50;69.60;;;;;;4144324;28;20386;-83
2023/07/26 03:38:36;;;;;;;;;;;12.50;69.60;;;;;;4144288;28;20356;-83
2023/07/26 03:40:57;;;;;;;;;;;12.50;69.80;;;;;;4143261;28;20360;-83
2023/07/26 03:43:04;;;;;;;;;;;12.40;69.80;;;;;;4160362;28;19920;-83
2023/07/26 03:45:26;;;;;;;;;;;12.50;69.80;;;;;;4139167;28;19929;-83
2023/07/26 03:47:47;;;;;;;;;;;12.50;70.40;;;;;;4144037;28;20350;-83
2023/07/26 03:50:08;;;;;;;;;;;12.40;70.40;;;;;;4145475;28;19936;-83
2023/07/26 03:52:28;;;;;;;;;;;12.30;70.00;;;;;;4143911;28;20229;-83
2023/07/26 03:54:49;;;;;;;;;;;12.30;70.40;;;;;;4144290;28;20875;-83
2023/07/26 03:57:09;;;;;;;;;;;12.40;70.90;;;;;;4143797;28;20420;-83
2023/07/26 03:59:30;;;;;;;;;;;12.30;71.10;;;;;;4141325;28;20391;-83
2023/07/26 04:01:30;;;;;;;;;;;12.30;70.80;;;;;;4140964;28;19914;-83
2023/07/26 04:03:31;;;;;;;;;;;12.20;70.40;;;;;;4144651;28;19913;-83
2023/07/26 04:05:32;;;;;;;;;;;12.30;70.60;;;;;;4142340;28;19913;-83
2023/07/26 04:07:34;;;;;;;;;;;12.20;70.50;;;;;;4142224;28;19917;-83
2023/07/26 04:09:35;;;;;;;;;;;12.20;70.80;;;;;;4142831;28;19917;-83
2023/07/26 04:11:35;;;;;;;;;;;12.20;70.90;;;;;;4142830;28;19971;-83
2023/07/26 04:13:36;;;;;;;;;;;12.20;70.80;;;;;;4142697;28;19917;-83
2023/07/26 04:15:37;;;;;;;;;;;12.10;71.20;;;;;;4142573;28;19924;-84
2023/07/26 04:17:37;;;;;;;;;;;12.20;71.40;;;;;;4138952;28;19924;-83
2023/07/26 04:19:38;;;;;;;;;;;12.20;71.80;;;;;;4144247;28;19926;-84
2023/07/26 04:21:38;;;;;;;;;;;12.20;72.30;;;;;;4157650;28;19921;-83
2023/07/26 04:23:39;;;;;;;;;;;12.20;72.10;;;;;;4143210;28;19917;-84
2023/07/26 04:25:39;;;;;;;;;;;12.30;72.50;;;;;;4141853;28;19924;-83
2023/07/26 04:27:40;;;;;;;;;;;12.20;72.70;;;;;;4140826;28;20375;-84
2023/07/26 04:29:42;;;;;;;;;;;12.30;72.80;;;;;;4140005;28;19964;-84
2023/07/26 04:31:43;;;;;;;;;;;12.30;73.10;;;;;;4141915;28;20598;-83
2023/07/26 04:33:43;;;;;;;;;;;12.30;73.00;;;;;;4142139;28;19921;-83
2023/07/26 04:35:45;;;;;;;;;;;12.40;72.90;;;;;;4140115;28;19928;-84
2023/07/26 04:37:45;;;;;;;;;;;12.40;72.80;;;;;;4141080;28;19922;-83
2023/07/26 04:39:46;;;;;;;;;;;12.40;73.00;;;;;;4144117;28;19929;-84
2023/07/26 04:41:47;;;;;;;;;;;12.30;73.20;;;;;;4147871;28;20386;-84
2023/07/26 04:43:47;;;;;;;;;;;12.50;73.40;;;;;;4143478;28;20435;-84
2023/07/26 04:45:48;;;;;;;;;;;12.50;73.20;;;;;;4158703;28;19929;-83
2023/07/26 04:47:49;;;;;;;;;;;12.40;73.50;;;;;;4159808;28;19920;-84
2023/07/26 04:49:50;;;;;;;;;;;12.50;73.30;;;;;;4140364;28;19913;-84
2023/07/26 04:51:50;;;;;;;;;;;12.50;73.50;;;;;;4140980;28;20482;-84
2023/07/26 04:53:51;;;;;;;;;;;12.50;73.90;;;;;;4142095;28;19920;-83
2023/07/26 04:55:51;;;;;;;;;;;12.60;74.20;;;;;;4142752;28;19917;-84
2023/07/26 04:57:52;;;;;;;;;;;12.70;74.50;;;;;;4139360;28;19929;-84
2023/07/26 04:59:53;;;;;;;;;;;12.70;75.20;;;;;;4155417;28;20016;-84
2023/07/26 05:01:53;;;;;;;;;;;12.70;75.50;;;;;;4138590;28;19917;-83
2023/07/26 05:03:54;;;;;;;;;;;12.80;75.40;;;;;;4139239;28;20007;-84
2023/07/26 05:05:54;;;;;;;;;;;12.80;75.20;;;;;;4143030;28;19918;-84
2023/07/26 05:07:55;;;;;;;;;;;13.00;75.50;;;;;;4140504;28;19975;-84
2023/07/26 05:09:55;;;;;;;;;;;13.00;76.00;;;;;;4138128;28;19924;-83
2023/07/26 05:11:56;;;;;;;;;;;13.10;75.80;;;;;;4138874;28;19928;-84
2023/07/26 05:13:56;;;;;;;;;;;13.20;75.90;;;;;;4139732;28;19992;-84
2023/07/26 05:15:57;;;;;;;;;;;13.20;75.80;;;;;;4140371;28;19979;-84
2023/07/26 05:17:57;;;;;;;;;;;13.30;76.60;;;;;;4137783;28;19917;-84
2023/07/26 05:19:59;;;;;;;;;;;13.40;76.60;;;;;;4138994;28;19933;-83
2023/07/26 05:21:59;;;;;;;;;;;13.40;76.00;;;;;;4140811;28;20506;-84
2023/07/26 05:24:00;;;;;;;;;;;13.60;75.80;;;;;;4140500;28;19921;-84
2023/07/26 05:26:00;;;;;;;;;;;13.60;75.20;;;;;;4137548;28;19921;-83
2023/07/26 05:28:01;;;;;;;;;;;13.60;75.10;;;;;;4138013;28;19950;-84
2023/07/26 05:30:01;;;;;;;;;;;13.70;74.00;;;;;;4140043;28;20583;-84
2023/07/26 05:32:02;;;;;;;;;;;13.80;74.10;;;;;;4137073;28;19956;-84
2023/07/26 05:34:03;;;;;;;;;;;13.80;74.20;;;;;;4139980;28;19975;-84
2023/07/26 05:36:05;;;;;;;;;;;13.80;73.50;;;;;;4138436;28;19997;-84
2023/07/26 05:38:05;;;;;;;;;;;13.90;73.10;;;;;;4155953;28;20101;-84
2023/07/26 05:40:06;;;;;;;;;;;14.10;73.60;;;;;;4140468;28;19925;-85
2023/07/26 05:42:07;;;;;;;;;;;14.00;73.30;;;;;;4140102;28;20411;-84
2023/07/26 05:44:07;;;;;;;;;;;14.00;73.70;;;;;;4142218;28;20027;-84
2023/07/26 05:46:08;;;;;;;;;;;14.10;72.90;;;;;;4142090;28;19921;-84
2023/07/26 05:48:09;;;;;;;;;;;14.10;73.20;;;;;;4141726;28;19924;-85
2023/07/26 05:50:12;;;;;;;;;;;14.30;72.40;;;;;;4140842;28;19944;-84
2023/07/26 05:52:13;;;;;;;;;;;14.20;72.20;;;;;;4142852;28;19917;-84
2023/07/26 05:54:13;;;;;;;;;;;14.30;72.50;;;;;;4141573;28;19922;-84
2023/07/26 05:56:14;;;;;;;;;;;14.50;72.40;;;;;;4143588;28;19914;-84
2023/07/26 05:58:15;;;;;;;;;;;14.40;70.90;;;;;;4142560;28;20311;-84
2023/07/26 06:00:17;;;;;;;;;;;14.40;70.90;;;;;;4141411;28;19928;-84
2023/07/26 06:02:18;;;;;;;;;;;14.50;71.20;;;;;;4140315;28;19921;-84
2023/07/26 06:04:18;;;;;;;;;;;14.60;70.30;;;;;;4139501;28;19922;-83
2023/07/26 06:06:19;;;;;;;;;;;14.60;70.20;;;;;;4141749;28;19924;-84
2023/07/26 06:08:20;;;;;;;;;;;14.60;69.40;;;;;;4139612;28;19930;-85
2023/07/26 06:10:20;;;;;;;;;;;14.70;69.60;;;;;;4137404;28;20388;-85
2023/07/26 06:12:21;;;;;;;;;;;14.80;68.30;;;;;;4139980;28;19914;-84
2023/07/26 06:14:24;;;;;;;;;;;14.80;67.70;;;;;;4139619;28;19936;-84
2023/07/26 06:16:25;;;;;;;;;;;14.80;68.00;;;;;;4139010;28;20172;-85
2023/07/26 06:18:25;;;;;;;;;;;14.90;67.10;;;;;;4140255;28;20444;-84
2023/07/26 06:20:36;;;;;;;;;;;14.90;67.00;;;;;;4138345;28;19944;-85
2023/07/26 06:22:56;;;;;;;;;;;15.00;65.50;;;;;;4138449;28;20001;-84
2023/07/26 06:25:17;;;;;;;;;;;15.00;65.50;;;;;;4139433;28;20562;-85
2023/07/26 06:27:38;;;;;;;;;;;15.10;65.30;;;;;;4139832;28;19960;-85
2023/07/26 06:29:58;;;;;;;;;;;15.10;65.70;;;;;;4137784;28;20405;-84
2023/07/26 06:32:19;;;;;;;;;;;15.20;65.80;;;;;;4141275;28;19914;-85
2023/07/26 06:34:39;;;;;;;;;;;15.30;64.30;;;;;;4138994;28;19918;-85
2023/07/26 06:37:00;;;;;;;;;;;15.30;63.90;;;;;;4142892;28;19914;-85
2023/07/26 06:39:00;;;;;;;;;;;15.50;64.00;;;;;;4143796;28;19943;-85
2023/07/26 06:41:01;;;;;;;;;;;15.50;63.80;;;;;;4144138;28;19921;-84
2023/07/26 06:43:01;;;;;;;;;;;15.50;64.00;;;;;;4143212;28;19918;-85
2023/07/26 06:45:03;;;;;;;;;;;15.50;64.10;;;;;;4142527;28;19920;-86
2023/07/26 06:47:04;;;;;;;;;;;15.60;64.20;;;;;;4142203;28;19940;-86
2023/07/26 06:49:04;;;;;;;;;;;15.60;64.10;;;;;;4147387;28;19922;-85
2023/07/26 06:51:05;;;;;;;;;;;15.70;64.10;;;;;;4141373;28;19929;-87
2023/07/26 06:53:08;;;;;;;;;;;15.80;63.90;;;;;;4142196;28;21582;-84
2023/07/26 06:55:08;;;;;;;;;;;15.80;63.00;;;;;;4142823;28;19948;-86
2023/07/26 06:57:09;;;;;;;;;;;15.80;63.40;;;;;;4144233;28;19921;-85
2023/07/26 06:59:12;;;;;;;;;;;15.90;63.50;;;;;;4140083;28;19917;-85
2023/07/26 07:01:18;;;;;;;;;;;15.90;62.70;;;;;;4142806;28;19918;-85
2023/07/26 07:03:19;;;;;;;;;;;16.00;62.20;;;;;;4141115;28;20005;-85
2023/07/26 07:05:19;;;;;;;;;;;16.10;62.10;;;;;;4137908;28;20384;-85
2023/07/26 07:07:20;;;;;;;;;;;16.10;61.40;;;;;;4141469;28;19924;-85
2023/07/26 07:09:20;;;;;;;;;;;16.10;61.90;;;;;;4156751;28;20422;-85
2023/07/26 07:11:21;;;;;;;;;;;16.30;61.00;;;;;;4141664;28;19921;-86
2023/07/26 07:13:22;;;;;;;;;;;16.20;60.10;;;;;;4142419;28;19967;-86
2023/07/26 07:15:22;;;;;;;;;;;16.30;60.50;;;;;;4143275;28;19918;-85
2023/07/26 07:17:23;;;;;;;;;;;16.30;60.40;;;;;;4139811;28;20398;-86
2023/07/26 07:19:23;;;;;;;;;;;16.40;60.60;;;;;;4140715;28;20391;-85
2023/07/26 07:21:24;;;;;;;;;;;16.50;60.00;;;;;;4129081;28;19921;-85
2023/07/26 07:23:25;;;;;;;;;;;16.50;60.10;;;;;;4142564;28;19948;-85
2023/07/26 07:25:25;;;;;;;;;;;16.50;59.60;;;;;;4142124;28;19922;-85
2023/07/26 07:27:26;;;;;;;;;;;16.60;60.30;;;;;;4140220;28;19913;-84
2023/07/26 07:29:27;;;;;;;;;;;16.60;59.80;;;;;;4148485;28;19902;-86
2023/07/26 07:31:27;;;;;;;;;;;16.60;59.70;;;;;;4158148;28;20416;-86
2023/07/26 07:33:28;;;;;;;;;;;16.60;59.40;;;;;;4145099;28;19949;-84
2023/07/26 07:35:49;;;;;;;;;;;16.70;59.40;;;;;;4141772;28;20004;-83
2023/07/26 07:38:09;;;;;;;;;;;16.60;59.40;;;;;;4144192;28;19918;-85
2023/07/26 07:40:30;;;;;;;;;;;16.50;59.50;;;;;;4143643;28;19924;-84
2023/07/26 07:42:30;;;;;;;;;;;16.50;59.90;;;;;;4140201;28;19921;-85
2023/07/26 07:44:51;;;;;;;;;;;16.40;60.70;;;;;;4140145;28;19914;-85
2023/07/26 07:47:12;;;;;;;;;;;16.30;60.40;;;;;;4141345;28;19921;-86
2023/07/26 07:49:12;;;;;;;;;;;16.20;60.70;;;;;;4142951;28;20643;-85
2023/07/26 07:51:33;;;;;;;;;;;16.20;60.80;;;;;;4143099;28;19918;-86
2023/07/26 07:53:53;;;;;;;;;;;16.20;61.00;;;;;;4141287;28;19917;-86
2023/07/26 07:56:14;;;;;;;;;;;16.20;61.20;;;;;;4142146;28;19913;-86
2023/07/26 07:58:34;;;;;;;;;;;16.10;61.20;;;;;;4139142;28;19967;-86
2023/07/26 08:00:59;;;;;;;;;;;16.10;61.20;;;;;;4139748;28;19944;-86
2023/07/26 08:03:20;;;;;;;;;;;15.90;61.20;;;;;;4143595;28;19917;-85
2023/07/26 08:05:41;;;;;;;;;;;15.90;61.70;;;;;;4141448;28;19925;-86
2023/07/26 08:08:02;;;;;;;;;;;15.90;62.10;;;;;;4138591;28;19921;-86
2023/07/26 08:10:22;;;;;;;;;;;15.90;63.10;;;;;;4142511;28;19917;-84
2023/07/26 08:12:43;;;;;;;;;;;15.80;63.60;;;;;;4143923;28;19917;-84
2023/07/26 08:14:47;;;;;;;;;;;15.80;64.10;;;;;;4141677;28;20358;-86
2023/07/26 08:16:47;;;;;;;;;;;15.90;64.00;;;;;;4141991;28;19922;-84
2023/07/26 08:18:48;;;;;;;;;;;15.90;64.20;;;;;;4144101;28;19917;-84
2023/07/26 08:20:48;;;;;;;;;;;16.10;64.80;;;;;;4145112;28;19921;-85
2023/07/26 08:22:49;;;;;;;;;;;16.00;65.10;;;;;;4142652;28;20474;-86
2023/07/26 08:24:53;;;;;;;;;;;16.10;65.30;;;;;;4142872;28;19921;-85
2023/07/26 08:26:53;;;;;;;;;;;16.20;65.90;;;;;;4142506;28;20171;-86
2023/07/26 08:28:54;;;;;;;;;;;16.30;65.80;;;;;;4141478;28;20449;-86
2023/07/26 08:30:54;;;;;;;;;;;16.30;65.70;;;;;;4140827;28;20029;-85
2023/07/26 08:32:55;;;;;;;;;;;16.40;65.00;;;;;;4141533;28;20327;-85
2023/07/26 08:34:55;;;;;;;;;;;16.50;64.80;;;;;;4142500;28;20276;-86
2023/07/26 08:36:56;;;;;;;;;;;16.50;65.10;;;;;;4138922;28;19921;-85
2023/07/26 08:38:57;;;;;;;;;;;16.60;65.00;;;;;;4124498;28;19922;-85
2023/07/26 08:40:58;;;;;;;;;;;16.70;64.70;;;;;;4123830;28;20376;-86
2023/07/26 08:43:02;;;;;;;;;;;16.80;64.10;;;;;;4142982;28;19920;-86
2023/07/26 08:45:05;;;;;;;;;;;16.90;63.80;;;;;;4138626;28;19927;-85
2023/07/26 08:47:07;;;;;;;;;;;16.90;63.70;;;;;;4139785;28;19921;-85
2023/07/26 08:49:07;;;;;;;;;;;17.10;63.80;;;;;;4140407;28;19913;-86
2023/07/26 08:51:08;;;;;;;;;;;17.20;63.50;;;;;;4139521;28;19920;-86
2023/07/26 08:53:09;;;;;;;;;;;17.20;63.00;;;;;;4138496;28;20458;-85
2023/07/26 08:55:11;;;;;;;;;;;17.40;63.30;;;;;;4137320;28;20292;-86
2023/07/26 08:57:12;;;;;;;;;;;17.40;61.20;;;;;;4155121;28;19992;-85
2023/07/26 08:59:12;;;;;;;;;;;17.40;61.50;;;;;;4138689;28;19969;-87
2023/07/26 09:01:14;;;;;;;;;;;17.60;61.70;;;;;;4138014;28;19922;-86
2023/07/26 09:03:16;;;;;;;;;;;17.60;61.10;;;;;;4139476;28;20087;-87
2023/07/26 09:05:17;;;;;;;;;;;17.60;58.80;;;;;;4137299;28;20418;-85
2023/07/26 09:07:18;;;;;;;;;;;17.60;59.40;;;;;;4139843;28;19913;-84
2023/07/26 09:09:19;;;;;;;;;;;17.70;59.10;;;;;;4138568;28;19913;-88
2023/07/26 09:11:20;;;;;;;;;;;17.70;58.50;;;;;;4143052;28;20295;-87
2023/07/26 09:13:21;;;;;;;;;;;17.50;57.80;;;;;;4145312;28;19928;-87
2023/07/26 09:15:24;;;;;;;;;;;17.50;57.60;;;;;;4141568;28;19921;-86
2023/07/26 09:17:38;;;;;;;;;;;17.40;57.30;;;;;;4140400;28;19909;-84
2023/07/26 09:19:39;;;;;;;;;;;17.30;57.70;;;;;;4140907;28;19957;-86
2023/07/26 09:21:39;;;;;;;;;;;17.20;57.50;;;;;;4144323;28;19968;-85
2023/07/26 09:23:44;;;;;;;;;;;17.10;57.50;;;;;;4141595;28;19953;-85
2023/07/26 09:25:45;;;;;;;;;;;17.00;57.70;;;;;;4140701;28;19918;-86
2023/07/26 09:27:52;;;;;;;;;;;16.90;58.00;;;;;;4139180;28;20363;-86
2023/07/26 09:29:54;;;;;;;;;;;16.90;58.20;;;;;;4139697;28;19913;-85
2023/07/26 09:31:55;;;;;;;;;;;16.90;58.70;;;;;;4142490;28;20533;-85
2023/07/26 09:33:55;;;;;;;;;;;16.80;59.30;;;;;;4141729;28;19918;-85
2023/07/26 09:35:56;;;;;;;;;;;16.80;59.50;;;;;;4141275;28;20347;-85
2023/07/26 09:37:57;;;;;;;;;;;16.80;59.60;;;;;;4143580;28;19913;-85
2023/07/26 09:39:58;;;;;;;;;;;16.80;59.70;;;;;;4137605;28;19932;-86
2023/07/26 09:42:06;;;;;;;;;;;16.90;60.00;;;;;;4139663;28;19917;-85
2023/07/26 09:44:17;;;;;;;;;;;16.90;59.90;;;;;;4139849;28;20365;-85
2023/07/26 09:46:17;;;;;;;;;;;17.00;60.10;;;;;;4140898;28;19925;-85
2023/07/26 09:48:18;;;;;;;;;;;17.10;60.10;;;;;;4140332;28;19922;-86
2023/07/26 09:50:28;;;;;;;;;;;17.20;59.90;;;;;;4143916;28;19929;-85
2023/07/26 09:52:29;;;;;;;;;;;17.20;59.40;;;;;;4139278;28;19922;-85
2023/07/26 09:54:31;;;;;;;;;;;17.30;58.60;;;;;;4140039;28;19918;-86
2023/07/26 09:56:35;;;;;;;;;;;17.40;57.20;;;;;;4142693;28;19913;-86
2023/07/26 09:58:38;;;;;;;;;;;17.40;56.40;;;;;;4143082;28;19917;-85
2023/07/26 10:00:39;;;;;;;;;;;17.40;56.60;;;;;;4139651;28;19913;-85
2023/07/26 10:02:40;;;;;;;;;;;17.40;56.50;;;;;;4139859;28;19924;-85
2023/07/26 10:04:47;;;;;;;;;;;17.40;56.10;;;;;;4141244;28;19922;-85
2023/07/26 10:06:49;;;;;;;;;;;17.40;56.00;;;;;;4140436;28;19921;-86
2023/07/26 10:08:49;;;;;;;;;;;17.40;56.00;;;;;;4141334;28;19913;-84
2023/07/26 10:10:51;;;;;;;;;;;17.40;56.20;;;;;;4145504;28;20292;-86
2023/07/26 10:12:52;;;;;;;;;;;17.30;56.40;;;;;;4143348;28;19914;-85
2023/07/26 10:14:55;;;;;;;;;;;17.30;56.60;;;;;;4144739;28;19960;-86
2023/07/26 10:16:56;;;;;;;;;;;17.30;57.00;;;;;;4143500;28;19928;-86
2023/07/26 10:18:58;;;;;;;;;;;17.30;57.50;;;;;;4146039;28;19932;-84
2023/07/26 10:21:00;;;;;;;;;;;17.30;57.60;;;;;;4145096;28;19918;-85
2023/07/26 10:23:02;;;;;;;;;;;17.40;58.10;;;;;;4145034;28;20012;-85
2023/07/26 10:25:03;;;;;;;;;;;17.40;58.30;;;;;;4144479;28;19996;-85
2023/07/26 10:27:04;;;;;;;;;;;17.50;58.20;;;;;;4142148;28;19921;-85
2023/07/26 10:29:05;;;;;;;;;;;17.50;58.20;;;;;;4145585;28;19909;-87
2023/07/26 10:31:06;;;;;;;;;;;17.60;58.30;;;;;;4138347;28;19918;-85
2023/07/26 10:33:15;;;;;;;;;;;17.70;58.00;;;;;;4130020;28;19964;-86
2023/07/26 10:35:27;;;;;;;;;;;17.70;57.60;;;;;;4165668;28;19925;-86
2023/07/26 10:37:32;;;;;;;;;;;17.80;57.70;;;;;;4165898;28;19906;-87
2023/07/26 10:39:34;;;;;;;;;;;17.90;57.40;;;;;;4142612;28;19922;-85
2023/07/26 10:41:35;;;;;;;;;;;18.00;57.50;;;;;;4141787;28;19910;-87
2023/07/26 10:43:39;;;;;;;;;;;18.10;57.50;;;;;;4141396;28;19924;-86
2023/07/26 10:45:42;;;;;;;;;;;18.10;57.40;;;;;;4143713;28;20383;-85
2023/07/26 10:47:57;;;;;;;;;;;18.10;57.50;;;;;;4144037;28;19918;-85
2023/07/26 10:50:03;;;;;;;;;;;18.20;57.00;;;;;;4144408;28;19914;-85
2023/07/26 10:52:04;;;;;;;;;;;18.20;56.60;;;;;;4142105;28;19913;-85
2023/07/26 10:54:05;;;;;;;;;;;18.20;56.90;;;;;;4141066;28;19932;-86
2023/07/26 10:56:07;;;;;;;;;;;18.20;56.70;;;;;;4140117;28;20000;-86
2023/07/26 10:58:11;;;;;;;;;;;18.30;56.20;;;;;;4141244;28;19920;-86
2023/07/26 11:00:17;;;;;;;;;;;18.30;55.70;;;;;;4159491;28;19932;-86
2023/07/26 11:02:34;;;;;;;;;;;18.30;55.50;;;;;;4145423;28;19987;-85
2023/07/26 11:04:41;;;;;;;;;;;18.40;55.50;;;;;;4139906;28;20166;-85
2023/07/26 11:06:51;;;;;;;;;;;18.40;54.50;;;;;;4143499;28;20020;-86
2023/07/26 11:08:53;;;;;;;;;;;18.40;54.10;;;;;;4128112;28;19920;-85
2023/07/26 11:10:53;;;;;;;;;;;18.50;53.40;;;;;;4156645;28;20004;-85
2023/07/26 11:13:04;;;;;;;;;;;18.50;53.30;;;;;;4141831;28;20280;-86
2023/07/26 11:15:05;;;;;;;;;;;18.50;52.40;;;;;;4142935;28;19921;-86
2023/07/26 11:17:10;;;;;;;;;;;18.60;52.40;;;;;;4144044;28;19928;-85
2023/07/26 11:19:11;;;;;;;;;;;18.60;52.90;;;;;;4141673;28;19925;-87
2023/07/26 11:21:15;;;;;;;;;;;18.70;52.20;;;;;;4144780;28;19914;-87
2023/07/26 11:23:17;;;;;;;;;;;18.70;51.70;;;;;;4146150;28;19910;-86
2023/07/26 11:25:20;;;;;;;;;;;18.80;51.20;;;;;;4141586;28;19921;-86
2023/07/26 11:27:20;;;;;;;;;;;18.90;50.90;;;;;;4145503;28;19921;-87
2023/07/26 11:29:21;;;;;;;;;;;18.90;51.20;;;;;;4142142;28;19921;-85
2023/07/26 11:31:22;;;;;;;;;;;19.00;50.30;;;;;;4144347;28;19913;-86
2023/07/26 11:33:26;;;;;;;;;;;19.00;49.80;;;;;;4143906;28;19971;-86
2023/07/26 11:35:37;;;;;;;;;;;19.00;49.80;;;;;;4142782;28;19913;-87
2023/07/26 11:37:37;;;;;;;;;;;19.00;50.50;;;;;;4142673;28;19921;-85
2023/07/26 11:39:38;;;;;;;;;;;18.90;50.90;;;;;;4145400;28;19928;-85
2023/07/26 11:41:41;;;;;;;;;;;18.90;51.60;;;;;;4145287;28;19933;-86
2023/07/26 11:43:42;;;;;;;;;;;18.70;52.40;;;;;;4144523;28;19910;-85
2023/07/26 11:45:43;;;;;;;;;;;18.60;53.10;;;;;;4142687;28;19921;-85
2023/07/26 11:47:44;;;;;;;;;;;18.60;53.50;;;;;;4142934;28;19933;-85
2023/07/26 11:49:45;;;;;;;;;;;18.50;53.90;;;;;;4144828;28;19921;-85
2023/07/26 11:51:46;;;;;;;;;;;18.40;54.60;;;;;;4141642;28;20020;-85
2023/07/26 11:53:47;;;;;;;;;;;18.30;55.20;;;;;;4144466;28;19917;-86
2023/07/26 11:55:50;;;;;;;;;;;18.20;55.40;;;;;;4137378;28;19929;-85
2023/07/26 11:57:51;;;;;;;;;;;18.20;55.80;;;;;;4139401;28;19919;-86
2023/07/26 11:59:55;;;;;;;;;;;18.10;55.30;;;;;;4141852;28;20040;-86
2023/07/26 12:01:55;;;;;;;;;;;18.10;55.50;;;;;;4138914;28;19921;-87
2023/07/26 12:03:56;;;;;;;;;;;18.10;55.00;;;;;;4143041;28;19939;-86
2023/07/26 12:05:58;;;;;;;;;;;18.10;54.80;;;;;;4141356;28;20051;-86
2023/07/26 12:08:01;;;;;;;;;;;18.10;54.80;;;;;;4139587;28;19922;-86
2023/07/26 12:10:02;;;;;;;;;;;18.10;54.60;;;;;;4137890;28;20012;-85